sensor_id;sensor_type;location;lat;lon;timestamp;P1;durP1;ratioP1;P2;durP2;ratioP2
45792;SDS011;31495;42.740;22.908;2023-06-22T00:00:09;9.93;;;6.38;;
45792;SDS011;31495;42.740;22.908;2023-06-22T00:01:10;9.10;;;6.13;;
45792;SDS011;31495;42.740;22.908;2023-06-22T00:02:10;10.25;;;6.57;;
45792;SDS011;31495;42.740;22.908;2023-06-22T00:03:09;9.38;;;6.90;;
45792;SDS011;31495;42.740;22.908;2023-06-22T00:04:09;10.38;;;6.45;;
45792;SDS011;31495;42.740;22.908;2023-06-22T00:05:09;10.35;;;6.97;;
45792;SDS011;31495;42.740;22.908;2023-06-22T00:06:08;12.50;;;7.43;;
45792;SDS011;31495;42.740;22.908;2023-06-22T00:07:08;9.25;;;6.72;;
45792;SDS011;31495;42.740;22.908;2023-06-22T00:08:08;9.02;;;6.57;;
45792;SDS011;31495;42.740;22.908;2023-06-22T00:09:07;10.23;;;6.32;;
45792;SDS011;31495;42.740;22.908;2023-06-22T00:10:06;8.07;;;6.20;;
45792;SDS011;31495;42.740;22.908;2023-06-22T00:11:06;10.63;;;6.32;;
45792;SDS011;31495;42.740;22.908;2023-06-22T00:12:06;11.48;;;7.10;;
45792;SDS011;31495;42.740;22.908;2023-06-22T00:13:06;9.35;;;6.63;;
45792;SDS011;31495;42.740;22.908;2023-06-22T00:14:06;8.02;;;6.03;;
45792;SDS011;31495;42.740;22.908;2023-06-22T00:15:05;8.90;;;6.50;;
45792;SDS011;31495;42.740;22.908;2023-06-22T00:16:05;7.55;;;5.88;;
45792;SDS011;31495;42.740;22.908;2023-06-22T00:17:05;7.90;;;6.32;;
45792;SDS011;31495;42.740;22.908;2023-06-22T00:18:05;13.35;;;7.00;;
45792;SDS011;31495;42.740;22.908;2023-06-22T00:19:05;9.90;;;7.00;;
45792;SDS011;31495;42.740;22.908;2023-06-22T00:20:05;8.82;;;6.35;;
45792;SDS011;31495;42.740;22.908;2023-06-22T00:21:07;9.85;;;6.03;;
45792;SDS011;31495;42.740;22.908;2023-06-22T00:22:07;10.38;;;6.72;;
45792;SDS011;31495;42.740;22.908;2023-06-22T00:23:06;7.68;;;5.85;;
45792;SDS011;31495;42.740;22.908;2023-06-22T00:24:09;13.88;;;6.60;;
45792;SDS011;31495;42.740;22.908;2023-06-22T00:25:08;9.90;;;6.78;;
45792;SDS011;31495;42.740;22.908;2023-06-22T00:26:08;10.27;;;6.28;;
45792;SDS011;31495;42.740;22.908;2023-06-22T00:27:08;11.85;;;6.60;;
45792;SDS011;31495;42.740;22.908;2023-06-22T00:28:07;9.25;;;7.35;;
45792;SDS011;31495;42.740;22.908;2023-06-22T00:29:07;12.38;;;6.63;;
45792;SDS011;31495;42.740;22.908;2023-06-22T00:30:06;10.90;;;6.45;;
45792;SDS011;31495;42.740;22.908;2023-06-22T00:31:06;10.45;;;6.88;;
45792;SDS011;31495;42.740;22.908;2023-06-22T00:32:06;8.32;;;6.38;;
45792;SDS011;31495;42.740;22.908;2023-06-22T00:33:05;9.13;;;7.20;;
45792;SDS011;31495;42.740;22.908;2023-06-22T00:34:06;10.18;;;7.05;;
45792;SDS011;31495;42.740;22.908;2023-06-22T00:35:07;11.10;;;6.65;;
45792;SDS011;31495;42.740;22.908;2023-06-22T00:36:08;9.75;;;6.43;;
45792;SDS011;31495;42.740;22.908;2023-06-22T00:37:07;11.07;;;7.35;;
45792;SDS011;31495;42.740;22.908;2023-06-22T00:38:07;9.48;;;6.50;;
45792;SDS011;31495;42.740;22.908;2023-06-22T00:39:07;9.57;;;6.90;;
45792;SDS011;31495;42.740;22.908;2023-06-22T00:40:07;10.10;;;6.50;;
45792;SDS011;31495;42.740;22.908;2023-06-22T00:41:07;11.05;;;6.75;;
45792;SDS011;31495;42.740;22.908;2023-06-22T00:42:07;8.75;;;6.80;;
45792;SDS011;31495;42.740;22.908;2023-06-22T00:43:06;11.40;;;6.55;;
45792;SDS011;31495;42.740;22.908;2023-06-22T00:44:06;9.27;;;6.75;;
45792;SDS011;31495;42.740;22.908;2023-06-22T00:46:07;8.40;;;6.68;;
45792;SDS011;31495;42.740;22.908;2023-06-22T00:47:07;8.80;;;6.60;;
45792;SDS011;31495;42.740;22.908;2023-06-22T00:48:06;10.05;;;7.75;;
45792;SDS011;31495;42.740;22.908;2023-06-22T00:49:06;8.85;;;6.68;;
45792;SDS011;31495;42.740;22.908;2023-06-22T00:50:06;9.45;;;6.50;;
45792;SDS011;31495;42.740;22.908;2023-06-22T00:51:08;10.05;;;7.60;;
45792;SDS011;31495;42.740;22.908;2023-06-22T00:52:09;10.88;;;7.53;;
45792;SDS011;31495;42.740;22.908;2023-06-22T00:53:12;10.35;;;7.30;;
45792;SDS011;31495;42.740;22.908;2023-06-22T00:54:12;8.43;;;6.97;;
45792;SDS011;31495;42.740;22.908;2023-06-22T00:55:12;9.35;;;7.07;;
45792;SDS011;31495;42.740;22.908;2023-06-22T00:56:13;9.20;;;6.90;;
45792;SDS011;31495;42.740;22.908;2023-06-22T00:57:13;9.45;;;7.45;;
45792;SDS011;31495;42.740;22.908;2023-06-22T00:58:15;9.75;;;7.30;;
45792;SDS011;31495;42.740;22.908;2023-06-22T00:59:15;11.77;;;7.82;;
45792;SDS011;31495;42.740;22.908;2023-06-22T01:00:16;10.73;;;7.30;;
45792;SDS011;31495;42.740;22.908;2023-06-22T01:01:18;9.63;;;7.32;;
45792;SDS011;31495;42.740;22.908;2023-06-22T01:02:22;16.08;;;8.82;;
45792;SDS011;31495;42.740;22.908;2023-06-22T01:03:21;13.88;;;7.93;;
45792;SDS011;31495;42.740;22.908;2023-06-22T01:04:23;9.18;;;6.95;;
45792;SDS011;31495;42.740;22.908;2023-06-22T01:05:32;9.18;;;6.95;;
45792;SDS011;31495;42.740;22.908;2023-06-22T01:06:34;13.25;;;7.43;;
45792;SDS011;31495;42.740;22.908;2023-06-22T01:08:00;9.93;;;7.55;;
45792;SDS011;31495;42.740;22.908;2023-06-22T01:09:08;14.18;;;9.07;;
45792;SDS011;31495;42.740;22.908;2023-06-22T01:11:31;12.20;;;8.98;;
45792;SDS011;31495;42.740;22.908;2023-06-22T01:12:38;13.75;;;9.32;;
45792;SDS011;31495;42.740;22.908;2023-06-22T01:15:17;11.73;;;7.72;;
45792;SDS011;31495;42.740;22.908;2023-06-22T01:16:23;11.63;;;8.57;;
45792;SDS011;31495;42.740;22.908;2023-06-22T01:17:26;11.95;;;8.45;;
45792;SDS011;31495;42.740;22.908;2023-06-22T01:18:25;12.20;;;8.25;;
45792;SDS011;31495;42.740;22.908;2023-06-22T01:20:40;12.20;;;9.55;;
45792;SDS011;31495;42.740;22.908;2023-06-22T01:21:40;12.23;;;8.65;;
45792;SDS011;31495;42.740;22.908;2023-06-22T01:23:05;11.65;;;8.27;;
45792;SDS011;31495;42.740;22.908;2023-06-22T01:24:18;12.20;;;8.10;;
45792;SDS011;31495;42.740;22.908;2023-06-22T01:25:28;13.35;;;8.80;;
45792;SDS011;31495;42.740;22.908;2023-06-22T01:29:16;14.73;;;9.75;;
45792;SDS011;31495;42.740;22.908;2023-06-22T01:30:16;11.07;;;9.15;;
45792;SDS011;31495;42.740;22.908;2023-06-22T01:31:24;13.70;;;10.10;;
45792;SDS011;31495;42.740;22.908;2023-06-22T01:32:32;12.32;;;8.45;;
45792;SDS011;31495;42.740;22.908;2023-06-22T01:33:34;12.50;;;9.07;;
45792;SDS011;31495;42.740;22.908;2023-06-22T01:34:36;11.75;;;9.18;;
45792;SDS011;31495;42.740;22.908;2023-06-22T01:35:39;16.23;;;9.48;;
45792;SDS011;31495;42.740;22.908;2023-06-22T01:36:40;12.73;;;9.25;;
45792;SDS011;31495;42.740;22.908;2023-06-22T01:37:40;14.82;;;9.02;;
45792;SDS011;31495;42.740;22.908;2023-06-22T01:38:39;11.35;;;9.45;;
45792;SDS011;31495;42.740;22.908;2023-06-22T01:39:41;12.68;;;9.70;;
45792;SDS011;31495;42.740;22.908;2023-06-22T01:40:41;12.75;;;10.32;;
45792;SDS011;31495;42.740;22.908;2023-06-22T01:41:41;12.35;;;8.48;;
45792;SDS011;31495;42.740;22.908;2023-06-22T01:42:41;12.25;;;9.75;;
45792;SDS011;31495;42.740;22.908;2023-06-22T01:43:42;13.27;;;8.50;;
45792;SDS011;31495;42.740;22.908;2023-06-22T01:44:42;12.70;;;9.20;;
45792;SDS011;31495;42.740;22.908;2023-06-22T01:45:43;10.32;;;8.60;;
45792;SDS011;31495;42.740;22.908;2023-06-22T01:46:42;20.65;;;9.20;;
45792;SDS011;31495;42.740;22.908;2023-06-22T01:47:43;10.63;;;8.77;;
45792;SDS011;31495;42.740;22.908;2023-06-22T01:48:43;14.95;;;10.27;;
45792;SDS011;31495;42.740;22.908;2023-06-22T01:49:43;12.52;;;10.30;;
45792;SDS011;31495;42.740;22.908;2023-06-22T01:50:43;14.35;;;9.57;;
45792;SDS011;31495;42.740;22.908;2023-06-22T01:51:42;17.77;;;10.35;;
45792;SDS011;31495;42.740;22.908;2023-06-22T01:52:42;12.73;;;10.15;;
45792;SDS011;31495;42.740;22.908;2023-06-22T01:53:42;13.82;;;10.55;;
45792;SDS011;31495;42.740;22.908;2023-06-22T01:54:42;13.55;;;10.30;;
45792;SDS011;31495;42.740;22.908;2023-06-22T01:55:41;14.45;;;10.48;;
45792;SDS011;31495;42.740;22.908;2023-06-22T01:56:41;15.10;;;10.45;;
45792;SDS011;31495;42.740;22.908;2023-06-22T01:57:40;13.65;;;9.95;;
45792;SDS011;31495;42.740;22.908;2023-06-22T01:58:41;14.80;;;10.55;;
45792;SDS011;31495;42.740;22.908;2023-06-22T02:01:10;13.07;;;10.68;;
45792;SDS011;31495;42.740;22.908;2023-06-22T02:02:11;16.30;;;9.40;;
45792;SDS011;31495;42.740;22.908;2023-06-22T02:03:23;13.25;;;10.10;;
45792;SDS011;31495;42.740;22.908;2023-06-22T02:04:43;12.52;;;10.38;;
45792;SDS011;31495;42.740;22.908;2023-06-22T02:05:51;13.57;;;9.70;;
45792;SDS011;31495;42.740;22.908;2023-06-22T02:06:56;15.63;;;9.85;;
45792;SDS011;31495;42.740;22.908;2023-06-22T02:08:41;15.80;;;10.02;;
45792;SDS011;31495;42.740;22.908;2023-06-22T02:09:23;13.10;;;10.10;;
45792;SDS011;31495;42.740;22.908;2023-06-22T02:10:25;15.70;;;10.63;;
45792;SDS011;31495;42.740;22.908;2023-06-22T02:11:27;15.50;;;10.38;;
45792;SDS011;31495;42.740;22.908;2023-06-22T02:12:28;14.15;;;11.20;;
45792;SDS011;31495;42.740;22.908;2023-06-22T02:14:30;13.18;;;10.18;;
45792;SDS011;31495;42.740;22.908;2023-06-22T02:15:30;15.07;;;11.00;;
45792;SDS011;31495;42.740;22.908;2023-06-22T02:16:31;14.85;;;11.20;;
45792;SDS011;31495;42.740;22.908;2023-06-22T02:17:31;13.60;;;10.65;;
45792;SDS011;31495;42.740;22.908;2023-06-22T02:18:32;16.00;;;10.75;;
45792;SDS011;31495;42.740;22.908;2023-06-22T02:19:31;14.25;;;11.15;;
45792;SDS011;31495;42.740;22.908;2023-06-22T02:20:32;21.52;;;10.98;;
45792;SDS011;31495;42.740;22.908;2023-06-22T02:21:31;18.52;;;11.93;;
45792;SDS011;31495;42.740;22.908;2023-06-22T02:22:31;18.33;;;11.98;;
45792;SDS011;31495;42.740;22.908;2023-06-22T02:23:31;14.55;;;10.82;;
45792;SDS011;31495;42.740;22.908;2023-06-22T02:24:34;14.90;;;11.60;;
45792;SDS011;31495;42.740;22.908;2023-06-22T02:25:33;17.75;;;12.48;;
45792;SDS011;31495;42.740;22.908;2023-06-22T02:26:33;15.75;;;11.85;;
45792;SDS011;31495;42.740;22.908;2023-06-22T02:27:33;15.85;;;11.30;;
45792;SDS011;31495;42.740;22.908;2023-06-22T02:28:33;16.65;;;12.07;;
45792;SDS011;31495;42.740;22.908;2023-06-22T02:29:32;16.58;;;12.90;;
45792;SDS011;31495;42.740;22.908;2023-06-22T02:30:32;15.75;;;11.98;;
45792;SDS011;31495;42.740;22.908;2023-06-22T02:31:32;17.55;;;11.82;;
45792;SDS011;31495;42.740;22.908;2023-06-22T02:32:31;18.58;;;12.45;;
45792;SDS011;31495;42.740;22.908;2023-06-22T02:33:33;16.25;;;12.32;;
45792;SDS011;31495;42.740;22.908;2023-06-22T02:34:33;18.83;;;11.93;;
45792;SDS011;31495;42.740;22.908;2023-06-22T02:35:33;14.43;;;11.23;;
45792;SDS011;31495;42.740;22.908;2023-06-22T02:36:34;15.13;;;11.13;;
45792;SDS011;31495;42.740;22.908;2023-06-22T02:37:35;12.80;;;10.73;;
45792;SDS011;31495;42.740;22.908;2023-06-22T02:38:38;13.70;;;10.35;;
45792;SDS011;31495;42.740;22.908;2023-06-22T02:39:38;16.75;;;10.65;;
45792;SDS011;31495;42.740;22.908;2023-06-22T02:40:37;12.52;;;10.00;;
45792;SDS011;31495;42.740;22.908;2023-06-22T02:41:37;11.40;;;8.98;;
45792;SDS011;31495;42.740;22.908;2023-06-22T02:42:36;13.30;;;10.80;;
45792;SDS011;31495;42.740;22.908;2023-06-22T02:43:36;13.48;;;10.10;;
45792;SDS011;31495;42.740;22.908;2023-06-22T02:44:36;11.30;;;9.35;;
45792;SDS011;31495;42.740;22.908;2023-06-22T02:45:35;12.95;;;9.18;;
45792;SDS011;31495;42.740;22.908;2023-06-22T02:46:35;13.50;;;10.40;;
45792;SDS011;31495;42.740;22.908;2023-06-22T02:47:35;12.15;;;9.80;;
45792;SDS011;31495;42.740;22.908;2023-06-22T02:48:34;14.52;;;9.57;;
45792;SDS011;31495;42.740;22.908;2023-06-22T02:49:34;21.90;;;10.38;;
45792;SDS011;31495;42.740;22.908;2023-06-22T02:50:34;15.60;;;11.05;;
45792;SDS011;31495;42.740;22.908;2023-06-22T02:51:33;14.73;;;9.98;;
45792;SDS011;31495;42.740;22.908;2023-06-22T02:52:33;15.07;;;9.48;;
45792;SDS011;31495;42.740;22.908;2023-06-22T02:53:33;14.18;;;11.02;;
45792;SDS011;31495;42.740;22.908;2023-06-22T02:54:32;12.68;;;9.82;;
45792;SDS011;31495;42.740;22.908;2023-06-22T02:55:32;13.73;;;10.18;;
45792;SDS011;31495;42.740;22.908;2023-06-22T02:56:32;12.43;;;9.75;;
45792;SDS011;31495;42.740;22.908;2023-06-22T02:57:31;18.75;;;9.77;;
45792;SDS011;31495;42.740;22.908;2023-06-22T02:58:31;16.55;;;9.88;;
45792;SDS011;31495;42.740;22.908;2023-06-22T02:59:37;14.75;;;9.85;;
45792;SDS011;31495;42.740;22.908;2023-06-22T03:00:39;14.75;;;9.07;;
45792;SDS011;31495;42.740;22.908;2023-06-22T03:01:39;11.90;;;9.55;;
45792;SDS011;31495;42.740;22.908;2023-06-22T03:02:39;16.23;;;9.45;;
45792;SDS011;31495;42.740;22.908;2023-06-22T03:03:38;12.88;;;9.57;;
45792;SDS011;31495;42.740;22.908;2023-06-22T03:04:38;13.88;;;10.50;;
45792;SDS011;31495;42.740;22.908;2023-06-22T03:05:37;14.98;;;10.65;;
45792;SDS011;31495;42.740;22.908;2023-06-22T03:06:37;16.08;;;9.82;;
45792;SDS011;31495;42.740;22.908;2023-06-22T03:07:37;14.55;;;9.90;;
45792;SDS011;31495;42.740;22.908;2023-06-22T03:08:37;14.45;;;10.75;;
45792;SDS011;31495;42.740;22.908;2023-06-22T03:09:36;14.10;;;10.90;;
45792;SDS011;31495;42.740;22.908;2023-06-22T03:10:36;12.38;;;10.48;;
45792;SDS011;31495;42.740;22.908;2023-06-22T03:11:36;17.45;;;11.43;;
45792;SDS011;31495;42.740;22.908;2023-06-22T03:12:36;14.70;;;10.95;;
45792;SDS011;31495;42.740;22.908;2023-06-22T03:14:36;14.93;;;10.75;;
45792;SDS011;31495;42.740;22.908;2023-06-22T03:15:35;16.30;;;10.70;;
45792;SDS011;31495;42.740;22.908;2023-06-22T03:16:35;12.75;;;9.80;;
45792;SDS011;31495;42.740;22.908;2023-06-22T03:17:36;12.27;;;9.85;;
45792;SDS011;31495;42.740;22.908;2023-06-22T03:18:37;18.02;;;10.18;;
45792;SDS011;31495;42.740;22.908;2023-06-22T03:19:37;14.13;;;10.82;;
45792;SDS011;31495;42.740;22.908;2023-06-22T03:20:36;13.65;;;9.88;;
45792;SDS011;31495;42.740;22.908;2023-06-22T03:21:36;21.10;;;10.73;;
45792;SDS011;31495;42.740;22.908;2023-06-22T03:23:37;15.88;;;10.80;;
45792;SDS011;31495;42.740;22.908;2023-06-22T03:24:36;16.02;;;10.75;;
45792;SDS011;31495;42.740;22.908;2023-06-22T03:25:38;15.32;;;9.50;;
45792;SDS011;31495;42.740;22.908;2023-06-22T03:26:37;12.52;;;10.40;;
45792;SDS011;31495;42.740;22.908;2023-06-22T03:27:40;18.77;;;11.43;;
45792;SDS011;31495;42.740;22.908;2023-06-22T03:28:41;16.40;;;11.25;;
45792;SDS011;31495;42.740;22.908;2023-06-22T03:29:40;17.42;;;11.00;;
45792;SDS011;31495;42.740;22.908;2023-06-22T03:30:40;14.25;;;10.73;;
45792;SDS011;31495;42.740;22.908;2023-06-22T03:31:39;18.20;;;11.52;;
45792;SDS011;31495;42.740;22.908;2023-06-22T03:32:39;15.25;;;11.45;;
45792;SDS011;31495;42.740;22.908;2023-06-22T03:33:39;25.05;;;11.95;;
45792;SDS011;31495;42.740;22.908;2023-06-22T03:34:38;14.20;;;10.60;;
45792;SDS011;31495;42.740;22.908;2023-06-22T03:35:38;15.93;;;11.18;;
45792;SDS011;31495;42.740;22.908;2023-06-22T03:36:37;15.38;;;12.23;;
45792;SDS011;31495;42.740;22.908;2023-06-22T03:37:37;16.50;;;11.80;;
45792;SDS011;31495;42.740;22.908;2023-06-22T03:38:37;15.80;;;11.70;;
45792;SDS011;31495;42.740;22.908;2023-06-22T03:39:37;13.30;;;11.40;;
45792;SDS011;31495;42.740;22.908;2023-06-22T03:40:36;19.63;;;12.82;;
45792;SDS011;31495;42.740;22.908;2023-06-22T03:41:36;13.52;;;10.70;;
45792;SDS011;31495;42.740;22.908;2023-06-22T03:42:35;21.90;;;11.98;;
45792;SDS011;31495;42.740;22.908;2023-06-22T03:43:35;16.48;;;12.18;;
45792;SDS011;31495;42.740;22.908;2023-06-22T03:44:35;14.02;;;10.93;;
45792;SDS011;31495;42.740;22.908;2023-06-22T03:45:35;15.45;;;11.48;;
45792;SDS011;31495;42.740;22.908;2023-06-22T03:46:35;14.23;;;11.60;;
45792;SDS011;31495;42.740;22.908;2023-06-22T03:47:34;18.13;;;12.88;;
45792;SDS011;31495;42.740;22.908;2023-06-22T03:48:33;17.27;;;12.02;;
45792;SDS011;31495;42.740;22.908;2023-06-22T03:49:33;21.38;;;12.45;;
45792;SDS011;31495;42.740;22.908;2023-06-22T03:50:33;14.63;;;11.15;;
45792;SDS011;31495;42.740;22.908;2023-06-22T03:51:33;15.48;;;11.45;;
45792;SDS011;31495;42.740;22.908;2023-06-22T03:52:32;17.20;;;12.00;;
45792;SDS011;31495;42.740;22.908;2023-06-22T03:53:32;17.70;;;11.90;;
45792;SDS011;31495;42.740;22.908;2023-06-22T03:54:31;13.90;;;11.35;;
45792;SDS011;31495;42.740;22.908;2023-06-22T03:55:31;16.67;;;12.50;;
45792;SDS011;31495;42.740;22.908;2023-06-22T03:56:32;13.95;;;11.60;;
45792;SDS011;31495;42.740;22.908;2023-06-22T03:57:32;16.50;;;12.75;;
45792;SDS011;31495;42.740;22.908;2023-06-22T03:58:32;14.13;;;11.65;;
45792;SDS011;31495;42.740;22.908;2023-06-22T03:59:32;24.40;;;12.55;;
45792;SDS011;31495;42.740;22.908;2023-06-22T04:00:32;22.15;;;12.68;;
45792;SDS011;31495;42.740;22.908;2023-06-22T04:01:31;13.90;;;12.02;;
45792;SDS011;31495;42.740;22.908;2023-06-22T04:02:31;15.98;;;12.48;;
45792;SDS011;31495;42.740;22.908;2023-06-22T04:03:30;15.77;;;13.00;;
45792;SDS011;31495;42.740;22.908;2023-06-22T04:04:30;14.98;;;12.00;;
45792;SDS011;31495;42.740;22.908;2023-06-22T04:05:29;15.75;;;12.50;;
45792;SDS011;31495;42.740;22.908;2023-06-22T04:06:29;15.38;;;12.23;;
45792;SDS011;31495;42.740;22.908;2023-06-22T04:07:28;19.00;;;12.90;;
45792;SDS011;31495;42.740;22.908;2023-06-22T04:08:28;17.08;;;12.40;;
45792;SDS011;31495;42.740;22.908;2023-06-22T04:09:27;15.68;;;12.10;;
45792;SDS011;31495;42.740;22.908;2023-06-22T04:10:26;15.55;;;12.10;;
45792;SDS011;31495;42.740;22.908;2023-06-22T04:11:26;14.63;;;12.18;;
45792;SDS011;31495;42.740;22.908;2023-06-22T04:12:25;16.42;;;13.00;;
45792;SDS011;31495;42.740;22.908;2023-06-22T04:13:25;18.38;;;12.68;;
45792;SDS011;31495;42.740;22.908;2023-06-22T04:14:24;19.15;;;13.10;;
45792;SDS011;31495;42.740;22.908;2023-06-22T04:15:23;15.45;;;12.32;;
45792;SDS011;31495;42.740;22.908;2023-06-22T04:16:23;16.58;;;12.45;;
45792;SDS011;31495;42.740;22.908;2023-06-22T04:17:22;17.67;;;12.30;;
45792;SDS011;31495;42.740;22.908;2023-06-22T04:18:23;17.73;;;12.88;;
45792;SDS011;31495;42.740;22.908;2023-06-22T04:19:23;14.32;;;12.32;;
45792;SDS011;31495;42.740;22.908;2023-06-22T04:20:22;18.13;;;12.27;;
45792;SDS011;31495;42.740;22.908;2023-06-22T04:21:25;16.67;;;13.02;;
45792;SDS011;31495;42.740;22.908;2023-06-22T04:22:24;20.02;;;13.02;;
45792;SDS011;31495;42.740;22.908;2023-06-22T04:23:24;14.10;;;11.90;;
45792;SDS011;31495;42.740;22.908;2023-06-22T04:24:23;19.60;;;12.95;;
45792;SDS011;31495;42.740;22.908;2023-06-22T04:25:22;14.55;;;12.02;;
45792;SDS011;31495;42.740;22.908;2023-06-22T04:26:22;16.30;;;11.75;;
45792;SDS011;31495;42.740;22.908;2023-06-22T04:27:21;21.27;;;12.48;;
45792;SDS011;31495;42.740;22.908;2023-06-22T04:28:22;14.57;;;11.93;;
45792;SDS011;31495;42.740;22.908;2023-06-22T04:29:21;15.40;;;12.43;;
45792;SDS011;31495;42.740;22.908;2023-06-22T04:30:27;14.48;;;12.63;;
45792;SDS011;31495;42.740;22.908;2023-06-22T04:31:28;16.52;;;13.82;;
45792;SDS011;31495;42.740;22.908;2023-06-22T04:32:31;20.02;;;13.73;;
45792;SDS011;31495;42.740;22.908;2023-06-22T04:33:30;23.45;;;14.80;;
45792;SDS011;31495;42.740;22.908;2023-06-22T04:34:30;22.92;;;13.30;;
45792;SDS011;31495;42.740;22.908;2023-06-22T04:35:31;18.98;;;14.27;;
45792;SDS011;31495;42.740;22.908;2023-06-22T04:36:31;23.90;;;16.23;;
45792;SDS011;31495;42.740;22.908;2023-06-22T04:37:38;20.88;;;14.95;;
45792;SDS011;31495;42.740;22.908;2023-06-22T04:38:38;19.75;;;15.18;;
45792;SDS011;31495;42.740;22.908;2023-06-22T04:39:38;26.25;;;14.90;;
45792;SDS011;31495;42.740;22.908;2023-06-22T04:40:41;22.90;;;14.85;;
45792;SDS011;31495;42.740;22.908;2023-06-22T04:41:40;18.40;;;13.82;;
45792;SDS011;31495;42.740;22.908;2023-06-22T04:42:43;16.42;;;13.45;;
45792;SDS011;31495;42.740;22.908;2023-06-22T04:43:51;19.88;;;14.88;;
45792;SDS011;31495;42.740;22.908;2023-06-22T04:44:53;20.05;;;14.95;;
45792;SDS011;31495;42.740;22.908;2023-06-22T04:45:53;17.58;;;14.02;;
45792;SDS011;31495;42.740;22.908;2023-06-22T04:46:52;20.13;;;15.85;;
45792;SDS011;31495;42.740;22.908;2023-06-22T04:48:01;17.65;;;14.60;;
45792;SDS011;31495;42.740;22.908;2023-06-22T04:49:01;22.33;;;15.43;;
45792;SDS011;31495;42.740;22.908;2023-06-22T04:50:00;18.92;;;15.15;;
45792;SDS011;31495;42.740;22.908;2023-06-22T04:51:04;21.27;;;15.35;;
45792;SDS011;31495;42.740;22.908;2023-06-22T04:52:05;27.80;;;15.00;;
45792;SDS011;31495;42.740;22.908;2023-06-22T04:53:06;17.70;;;14.43;;
45792;SDS011;31495;42.740;22.908;2023-06-22T04:54:07;25.48;;;15.55;;
45792;SDS011;31495;42.740;22.908;2023-06-22T04:55:07;18.73;;;14.45;;
45792;SDS011;31495;42.740;22.908;2023-06-22T04:56:08;21.23;;;14.65;;
45792;SDS011;31495;42.740;22.908;2023-06-22T04:57:08;20.13;;;14.90;;
45792;SDS011;31495;42.740;22.908;2023-06-22T04:58:10;22.70;;;14.80;;
45792;SDS011;31495;42.740;22.908;2023-06-22T04:59:12;19.83;;;16.30;;
45792;SDS011;31495;42.740;22.908;2023-06-22T05:00:12;23.70;;;15.27;;
45792;SDS011;31495;42.740;22.908;2023-06-22T05:01:12;24.50;;;16.25;;
45792;SDS011;31495;42.740;22.908;2023-06-22T05:02:11;22.60;;;15.43;;
45792;SDS011;31495;42.740;22.908;2023-06-22T05:03:11;19.67;;;15.88;;
45792;SDS011;31495;42.740;22.908;2023-06-22T05:04:10;21.55;;;14.70;;
45792;SDS011;31495;42.740;22.908;2023-06-22T05:05:10;24.35;;;14.25;;
45792;SDS011;31495;42.740;22.908;2023-06-22T05:06:12;23.05;;;15.77;;
45792;SDS011;31495;42.740;22.908;2023-06-22T05:07:13;22.63;;;15.77;;
45792;SDS011;31495;42.740;22.908;2023-06-22T05:08:13;23.65;;;15.07;;
45792;SDS011;31495;42.740;22.908;2023-06-22T05:09:12;18.60;;;15.13;;
45792;SDS011;31495;42.740;22.908;2023-06-22T05:10:12;21.23;;;15.85;;
45792;SDS011;31495;42.740;22.908;2023-06-22T05:11:12;19.98;;;13.73;;
45792;SDS011;31495;42.740;22.908;2023-06-22T05:12:11;28.50;;;15.30;;
45792;SDS011;31495;42.740;22.908;2023-06-22T05:13:11;19.75;;;15.45;;
45792;SDS011;31495;42.740;22.908;2023-06-22T05:14:10;23.95;;;14.98;;
45792;SDS011;31495;42.740;22.908;2023-06-22T05:15:10;23.80;;;14.93;;
45792;SDS011;31495;42.740;22.908;2023-06-22T05:16:10;28.20;;;16.05;;
45792;SDS011;31495;42.740;22.908;2023-06-22T05:17:09;21.67;;;14.93;;
45792;SDS011;31495;42.740;22.908;2023-06-22T05:18:12;20.52;;;15.40;;
45792;SDS011;31495;42.740;22.908;2023-06-22T05:19:12;22.05;;;15.98;;
45792;SDS011;31495;42.740;22.908;2023-06-22T05:20:12;23.25;;;15.52;;
45792;SDS011;31495;42.740;22.908;2023-06-22T05:21:12;24.73;;;15.23;;
45792;SDS011;31495;42.740;22.908;2023-06-22T05:22:11;20.75;;;15.45;;
45792;SDS011;31495;42.740;22.908;2023-06-22T05:23:11;20.77;;;15.50;;
45792;SDS011;31495;42.740;22.908;2023-06-22T05:24:11;22.48;;;14.23;;
45792;SDS011;31495;42.740;22.908;2023-06-22T05:25:10;19.90;;;15.07;;
45792;SDS011;31495;42.740;22.908;2023-06-22T05:26:10;19.67;;;15.15;;
45792;SDS011;31495;42.740;22.908;2023-06-22T05:27:10;22.77;;;15.63;;
45792;SDS011;31495;42.740;22.908;2023-06-22T05:28:10;23.65;;;16.75;;
45792;SDS011;31495;42.740;22.908;2023-06-22T05:29:10;22.15;;;15.82;;
45792;SDS011;31495;42.740;22.908;2023-06-22T05:30:09;18.60;;;15.38;;
45792;SDS011;31495;42.740;22.908;2023-06-22T05:31:10;20.67;;;15.38;;
45792;SDS011;31495;42.740;22.908;2023-06-22T05:32:10;20.17;;;15.77;;
45792;SDS011;31495;42.740;22.908;2023-06-22T05:33:09;21.45;;;15.13;;
45792;SDS011;31495;42.740;22.908;2023-06-22T05:34:09;24.00;;;16.15;;
45792;SDS011;31495;42.740;22.908;2023-06-22T05:35:08;17.15;;;14.68;;
45792;SDS011;31495;42.740;22.908;2023-06-22T05:36:08;22.00;;;16.50;;
45792;SDS011;31495;42.740;22.908;2023-06-22T05:37:09;20.35;;;15.88;;
45792;SDS011;31495;42.740;22.908;2023-06-22T05:38:09;20.80;;;15.80;;
45792;SDS011;31495;42.740;22.908;2023-06-22T05:39:12;21.10;;;15.60;;
45792;SDS011;31495;42.740;22.908;2023-06-22T05:40:15;22.52;;;14.68;;
45792;SDS011;31495;42.740;22.908;2023-06-22T05:41:14;20.35;;;13.80;;
45792;SDS011;31495;42.740;22.908;2023-06-22T05:42:14;17.90;;;14.27;;
45792;SDS011;31495;42.740;22.908;2023-06-22T05:43:15;17.50;;;14.60;;
45792;SDS011;31495;42.740;22.908;2023-06-22T05:44:14;22.25;;;16.05;;
45792;SDS011;31495;42.740;22.908;2023-06-22T05:45:14;18.45;;;14.50;;
45792;SDS011;31495;42.740;22.908;2023-06-22T05:46:13;23.13;;;15.65;;
45792;SDS011;31495;42.740;22.908;2023-06-22T05:47:13;22.73;;;15.27;;
45792;SDS011;31495;42.740;22.908;2023-06-22T05:48:13;24.15;;;16.23;;
45792;SDS011;31495;42.740;22.908;2023-06-22T05:49:12;23.30;;;16.85;;
45792;SDS011;31495;42.740;22.908;2023-06-22T05:50:12;18.33;;;14.50;;
45792;SDS011;31495;42.740;22.908;2023-06-22T05:51:12;23.38;;;16.00;;
45792;SDS011;31495;42.740;22.908;2023-06-22T05:52:11;17.70;;;15.00;;
45792;SDS011;31495;42.740;22.908;2023-06-22T05:53:11;21.25;;;15.57;;
45792;SDS011;31495;42.740;22.908;2023-06-22T05:54:11;29.25;;;15.38;;
45792;SDS011;31495;42.740;22.908;2023-06-22T05:55:12;21.00;;;15.00;;
45792;SDS011;31495;42.740;22.908;2023-06-22T05:56:11;20.08;;;14.60;;
45792;SDS011;31495;42.740;22.908;2023-06-22T05:57:11;25.10;;;15.35;;
45792;SDS011;31495;42.740;22.908;2023-06-22T05:58:10;17.88;;;14.98;;
45792;SDS011;31495;42.740;22.908;2023-06-22T05:59:10;20.30;;;15.60;;
45792;SDS011;31495;42.740;22.908;2023-06-22T06:00:09;23.20;;;14.77;;
45792;SDS011;31495;42.740;22.908;2023-06-22T06:01:10;20.98;;;16.52;;
45792;SDS011;31495;42.740;22.908;2023-06-22T06:02:09;17.73;;;15.07;;
45792;SDS011;31495;42.740;22.908;2023-06-22T06:03:09;19.73;;;14.98;;
45792;SDS011;31495;42.740;22.908;2023-06-22T06:04:09;19.80;;;14.55;;